Time;durP1;ratioP1;P1;durP2;ratioP2;P2;SDS_P1;SDS_P2;PMS_P1;PMS_P2;Temp;Humidity;BMP_temperature;BMP_pressure;BME280_temperature;BME280_humidity;BME280_pressure;Samples;Min_cycle;Max_cycle;Signal;HPM_P1;HPM_P2
2023/01/01 00:00:32;;;;;;;7.87;5.83;;;13.80;99.90;;;13.64;66.99;100007.06;5130482;28;20216;-66
2023/01/01 00:03:02;;;;;;;7.70;6.20;;;13.80;99.90;;;13.65;67.09;100013.94;5133175;28;20453;-67
2023/01/01 00:05:30;;;;;;;6.53;4.70;;;13.80;99.90;;;13.64;66.77;100018.28;5131203;28;20275;-66
2023/01/01 00:07:59;;;;;;;6.27;4.00;;;13.80;99.90;;;13.65;66.71;100019.97;5130123;28;20220;-66
2023/01/01 00:10:32;;;;;;;5.23;4.17;;;13.80;99.90;;;13.67;66.39;100012.19;5130548;28;20195;-67
2023/01/01 00:13:00;;;;;;;7.20;4.33;;;13.80;99.90;;;13.66;66.38;100020.81;5131009;28;20206;-68
2023/01/01 00:15:29;;;;;;;5.57;4.13;;;13.80;99.90;;;13.66;66.99;100000.09;5126852;28;20921;-67
2023/01/01 00:17:58;;;;;;;4.63;3.70;;;13.80;99.90;;;13.63;66.65;100005.38;5129618;28;20207;-68
2023/01/01 00:20:28;;;;;;;4.80;3.97;;;13.80;99.90;;;13.65;66.59;100011.34;5129485;28;20259;-68
2023/01/01 00:23:02;;;;;;;5.13;3.50;;;13.80;99.90;;;13.64;66.79;100015.69;5130314;28;20235;-67
2023/01/01 00:25:31;;;;;;;5.73;4.30;;;13.80;99.90;;;13.64;66.87;100017.44;5128677;28;20204;-68
2023/01/01 00:28:00;;;;;;;5.33;3.70;;;13.80;99.90;;;13.61;66.36;100007.16;5128209;28;20263;-67
2023/01/01 00:30:28;;;;;;;6.73;4.27;;;13.80;99.90;;;13.65;66.84;100014.78;5126227;28;20229;-68
2023/01/01 00:32:57;;;;;;;4.83;3.60;;;13.70;99.90;;;13.63;66.59;100019.16;5126597;28;20231;-67
2023/01/01 00:35:27;;;;;;;4.00;3.23;;;13.80;99.90;;;13.67;66.29;100015.63;5127130;28;20200;-69
2023/01/01 00:37:56;;;;;;;4.47;3.60;;;13.80;99.90;;;13.69;66.40;100020.75;5125435;28;20196;-68
2023/01/01 00:40:25;;;;;;;5.70;3.70;;;13.80;99.90;;;13.69;66.53;100024.19;5125120;28;20199;-68
2023/01/01 00:42:53;;;;;;;4.87;3.80;;;13.80;99.90;;;13.70;66.50;100017.28;5118555;28;20257;-68
2023/01/01 00:45:24;;;;;;;4.70;3.50;;;13.80;99.90;;;13.66;66.33;100016.50;5129487;28;20285;-66
2023/01/01 00:47:54;;;;;;;5.10;3.57;;;13.80;99.90;;;13.66;66.03;100019.09;5130652;28;20226;-67
2023/01/01 00:50:23;;;;;;;4.67;3.17;;;13.80;99.90;;;13.67;66.03;100020.78;5128116;28;20228;-66
2023/01/01 00:52:53;;;;;;;5.40;3.47;;;13.80;99.90;;;13.67;66.04;100019.94;5131294;28;20203;-67
2023/01/01 00:55:22;;;;;;;5.13;3.37;;;13.80;99.90;;;13.66;65.79;100028.59;5130736;28;20280;-67
2023/01/01 00:57:50;;;;;;;4.83;3.20;;;13.80;99.90;;;13.67;66.26;99996.66;5123898;28;20210;-67
2023/01/01 01:00:19;;;;;;;6.17;3.23;;;13.80;99.90;;;13.66;66.03;100021.69;5130013;28;20279;-68
2023/01/01 01:02:48;;;;;;;5.23;3.70;;;13.80;99.90;;;13.69;65.74;100018.16;5131662;28;20213;-67
2023/01/01 01:05:16;;;;;;;4.97;3.53;;;13.80;99.90;;;13.68;66.14;100025.06;5134242;28;20204;-67
2023/01/01 01:07:45;;;;;;;4.63;3.37;;;13.80;99.90;;;13.68;65.87;100026.81;5131564;28;20199;-65
2023/01/01 01:10:15;;;;;;;5.73;3.33;;;13.80;99.90;;;13.69;66.01;100013.81;5131384;28;20228;-66
2023/01/01 01:12:43;;;;;;;6.00;3.33;;;13.80;99.90;;;13.69;65.62;100029.34;5132021;28;20203;-68
2023/01/01 01:15:12;;;;;;;4.70;3.43;;;13.90;99.90;;;13.70;65.85;100019.88;5125537;28;20235;-66
2023/01/01 01:17:40;;;;;;;6.03;3.70;;;13.90;99.90;;;13.74;65.40;100032.69;5128977;28;20218;-66
2023/01/01 01:20:10;;;;;;;4.20;3.27;;;13.90;99.90;;;13.73;65.29;100022.38;5116705;28;20267;-67
2023/01/01 01:22:39;;;;;;;4.37;3.07;;;13.90;99.90;;;13.77;65.39;100030.03;5121742;28;20208;-67
2023/01/01 01:25:09;;;;;;;5.30;3.67;;;13.90;99.90;;;13.77;64.87;100024.88;5121415;28;20200;-67
2023/01/01 01:27:39;;;;;;;4.17;2.90;;;13.90;99.90;;;13.78;65.28;100034.31;5125497;28;20212;-66
2023/01/01 01:30:08;;;;;;;4.00;3.00;;;13.90;99.90;;;13.80;64.86;100043.78;5116596;27;20255;-67
2023/01/01 01:32:37;;;;;;;4.00;2.73;;;13.90;99.90;;;13.80;64.75;100034.28;5125437;28;20204;-67
2023/01/01 01:35:06;;;;;;;5.63;3.23;;;14.00;99.90;;;13.81;64.50;100036.00;5128115;28;20450;-67
2023/01/01 01:37:35;;;;;;;3.77;2.63;;;14.00;99.90;;;13.81;64.58;100024.75;5125074;28;20229;-66
2023/01/01 01:40:05;;;;;;;4.13;3.20;;;14.00;99.90;;;13.84;64.30;100027.28;5121045;28;20610;-67
2023/01/01 01:42:34;;;;;;;6.90;3.33;;;14.00;99.90;;;13.85;64.67;100027.25;5126130;28;20256;-67
2023/01/01 01:45:07;;;;;;;5.13;3.10;;;14.00;99.90;;;13.85;64.08;100032.44;5126488;28;20196;-66
2023/01/01 01:47:39;;;;;;;4.87;3.10;;;14.00;99.90;;;13.86;64.38;100044.50;5127193;28;20211;-66
2023/01/01 01:50:15;;;;;;;3.60;2.67;;;14.00;99.90;;;13.83;63.86;100013.47;5126216;28;20234;-67
2023/01/01 01:52:55;;;;;;;6.70;3.07;;;14.00;99.90;;;13.88;63.58;100023.72;5115089;28;20225;-67
2023/01/01 01:55:26;;;;;;;4.53;3.20;;;14.00;99.90;;;13.90;63.63;100029.72;5128124;28;20217;-66
2023/01/01 01:57:54;;;;;;;4.40;2.90;;;14.10;99.90;;;13.93;63.79;100033.09;5136619;28;20188;-66
2023/01/01 02:00:24;;;;;;;5.10;3.20;;;14.10;99.90;;;13.96;63.53;100027.84;5127699;28;20211;-66
2023/01/01 02:02:58;;;;;;;4.60;3.10;;;14.10;99.90;;;13.98;63.52;100023.44;5136131;28;20196;-66
2023/01/01 02:05:27;;;;;;;3.50;3.03;;;14.10;99.90;;;13.97;63.30;100013.97;5135678;28;20211;-66
2023/01/01 02:07:56;;;;;;;5.37;3.40;;;14.20;99.90;;;13.99;62.94;100032.06;5133203;28;20225;-67
2023/01/01 02:10:24;;;;;;;4.73;3.57;;;14.20;99.90;;;14.00;63.24;100019.09;5127404;28;20288;-65
2023/01/01 02:12:53;;;;;;;5.20;3.53;;;14.10;99.90;;;14.02;62.97;100003.50;5131681;28;20608;-66
2023/01/01 02:15:28;;;;;;;5.20;3.10;;;14.20;99.90;;;14.01;62.88;100023.38;5129492;28;20204;-66
2023/01/01 02:18:03;;;;;;;4.83;3.40;;;14.10;99.90;;;14.01;62.79;100027.72;5128056;28;20245;-67
2023/01/01 02:20:48;;;;;;;4.37;3.73;;;14.20;99.90;;;14.02;62.78;100027.66;5132395;28;20259;-66
2023/01/01 02:23:58;;;;;;;4.40;3.47;;;14.10;99.90;;;14.04;62.83;100029.38;5124707;28;20245;-67
2023/01/01 02:26:53;;;;;;;5.20;3.20;;;14.20;99.90;;;14.01;62.28;100020.78;5133524;28;20229;-66
2023/01/01 02:29:40;;;;;;;6.43;4.23;;;14.20;99.90;;;14.04;62.58;100032.81;5129431;28;20180;-66
2023/01/01 02:32:12;;;;;;;6.53;3.93;;;14.20;99.90;;;14.05;62.42;100028.47;5133380;28;20197;-67
2023/01/01 02:34:46;;;;;;;5.60;4.00;;;14.20;99.90;;;14.09;62.26;100043.91;5134841;28;20220;-66
2023/01/01 02:37:19;;;;;;;4.73;3.53;;;14.20;99.90;;;14.08;62.34;100031.84;5133998;28;20272;-66
2023/01/01 02:39:54;;;;;;;4.57;3.70;;;14.30;99.90;;;14.12;62.00;100004.13;5133784;28;20183;-66
2023/01/01 02:42:28;;;;;;;6.07;3.80;;;14.30;99.90;;;14.13;61.34;100003.22;5134581;28;20183;-66
2023/01/01 02:45:00;;;;;;;5.03;3.60;;;14.30;99.90;;;14.15;61.65;100010.06;5133924;28;20203;-66
2023/01/01 02:47:28;;;;;;;3.93;3.20;;;14.30;99.90;;;14.16;61.74;99997.94;5134671;28;20184;-66
2023/01/01 02:50:06;;;;;;;3.87;3.00;;;14.40;99.90;;;14.21;61.18;100003.84;5134951;28;20223;-65
2023/01/01 02:53:08;;;;;;;5.97;3.20;;;14.40;99.90;;;14.22;61.09;100009.00;5127101;28;20183;-65
2023/01/01 02:55:53;;;;;;;4.30;3.00;;;14.40;99.90;;;14.24;61.07;100020.16;5125854;28;20192;-66
2023/01/01 03:01:29;;;;;;;3.93;3.10;;;14.40;99.90;;;14.25;60.42;100032.25;5135442;28;20223;-65
2023/01/01 03:04:08;;;;;;;4.37;3.10;;;14.40;99.90;;;14.26;60.80;100009.78;5131694;28;20219;-67
2023/01/01 03:06:46;;;;;;;7.53;3.43;;;14.40;99.90;;;14.25;60.73;100005.50;5129253;28;20196;-66
2023/01/01 03:09:23;;;;;;;4.13;3.30;;;14.50;99.90;;;14.26;60.33;100002.00;5119317;28;20205;-66
2023/01/01 03:12:00;;;;;;;5.27;3.20;;;14.40;99.90;;;14.25;60.50;100013.25;5128414;28;20269;-66
2023/01/01 03:14:40;;;;;;;3.73;2.80;;;14.40;99.90;;;14.27;60.69;100011.47;5123523;28;20257;-65
2023/01/01 03:17:20;;;;;;;4.70;3.10;;;14.40;99.90;;;14.26;60.09;100002.00;5128495;28;20217;-65
2023/01/01 03:19:51;;;;;;;3.60;3.00;;;14.50;99.90;;;14.28;60.08;100000.19;5118014;28;20261;-67
2023/01/01 03:22:24;;;;;;;3.90;3.00;;;14.50;99.90;;;14.27;60.29;99986.41;5128556;28;20231;-66
2023/01/01 03:24:58;;;;;;;3.80;2.70;;;14.50;99.90;;;14.27;60.01;99999.34;5128496;28;20188;-66
2023/01/01 03:27:32;;;;;;;3.30;3.00;;;14.40;99.90;;;14.26;59.90;99992.47;5128452;28;20208;-66
2023/01/01 03:30:07;;;;;;;4.23;3.13;;;14.50;99.90;;;14.29;60.03;99999.34;5131907;28;20221;-67
2023/01/01 03:33:02;;;;;;;5.77;3.33;;;14.50;99.90;;;14.30;59.72;100007.94;5130703;28;20192;-66
2023/01/01 03:35:40;;;;;;;3.67;2.83;;;14.50;99.90;;;14.33;58.83;100015.66;5131108;28;20188;-67
2023/01/01 03:38:16;;;;;;;4.43;3.30;;;14.50;99.90;;;14.38;59.10;100019.78;5130359;28;20199;-67
2023/01/01 03:40:47;;;;;;;4.43;2.73;;;14.50;99.90;;;14.41;58.75;100029.25;5130363;28;20280;-66
2023/01/01 03:43:22;;;;;;;4.93;3.10;;;14.60;99.90;;;14.41;58.75;100024.91;5129350;28;20642;-66
2023/01/01 03:45:52;;;;;;;4.50;2.80;;;14.60;99.90;;;14.46;58.19;100041.16;5132835;28;20294;-66
2023/01/01 03:48:23;;;;;;;5.37;2.70;;;14.60;99.90;;;14.46;58.48;100043.75;5129898;28;20269;-66
2023/01/01 03:51:02;;;;;;;3.73;2.83;;;14.60;99.90;;;14.47;58.35;100048.06;5130671;28;20216;-67
2023/01/01 03:53:39;;;;;;;4.07;2.60;;;14.60;99.90;;;14.48;58.46;100029.03;5131064;28;20214;-66
2023/01/01 03:56:17;;;;;;;4.47;2.80;;;14.70;99.90;;;14.47;58.21;100037.72;5130168;28;20276;-67
2023/01/01 03:58:52;;;;;;;4.97;3.10;;;14.70;99.90;;;14.49;57.57;100050.63;5114087;28;20204;-66
2023/01/01 04:01:26;;;;;;;3.70;2.70;;;14.70;99.90;;;14.49;58.00;100051.50;5127506;28;20210;-66
2023/01/01 04:03:57;;;;;;;3.60;3.03;;;14.70;99.90;;;14.50;57.65;100040.22;5126981;28;20204;-66
2023/01/01 04:06:26;;;;;;;3.97;2.97;;;14.70;99.90;;;14.53;57.31;100035.84;5130105;28;20211;-66
2023/01/01 04:08:59;;;;;;;5.00;2.90;;;14.70;99.90;;;14.52;57.93;100036.75;5129648;28;20305;-67
2023/01/01 04:14:28;;;;;;;4.37;2.90;;;14.70;99.90;;;14.49;57.78;100050.63;5124402;28;20230;-66
2023/01/01 04:16:57;;;;;;;4.63;3.33;;;14.70;99.90;;;14.47;57.21;100053.25;5125622;28;20195;-67
2023/01/01 04:19:27;;;;;;;4.83;2.93;;;14.60;99.90;;;14.45;57.57;100043.81;5120722;28;20204;-67
2023/01/01 04:21:56;;;;;;;4.60;3.17;;;14.60;99.90;;;14.44;57.29;100063.72;5126488;28;20208;-67
2023/01/01 04:24:24;;;;;;;3.70;2.93;;;14.60;99.90;;;14.46;57.74;100054.13;5125331;28;20210;-67
2023/01/01 04:26:54;;;;;;;4.13;2.97;;;14.70;99.90;;;14.43;57.06;100051.66;5127897;28;20219;-66
2023/01/01 04:29:23;;;;;;;4.63;2.83;;;14.60;99.90;;;14.46;57.19;100056.72;5122762;28;20233;-67
2023/01/01 04:31:51;;;;;;;3.50;2.80;;;14.60;99.90;;;14.45;57.39;100062.81;5122268;28;20245;-66
2023/01/01 04:34:20;;;;;;;3.63;2.97;;;14.60;99.90;;;14.46;57.11;100050.69;5123154;28;20255;-66
2023/01/01 04:36:50;;;;;;;3.60;2.90;;;14.70;99.90;;;14.47;56.98;100063.63;5119906;28;20233;-67
2023/01/01 04:39:18;;;;;;;4.83;2.60;;;14.70;99.90;;;14.46;57.32;100048.09;5123829;28;20265;-67
2023/01/01 04:41:47;;;;;;;3.43;2.80;;;14.70;99.90;;;14.44;57.21;100058.53;5128292;28;20200;-67
2023/01/01 04:44:16;;;;;;;3.10;2.63;;;14.70;99.90;;;14.47;56.87;100057.56;5137916;28;20196;-67
2023/01/01 04:46:44;;;;;;;5.33;2.73;;;14.70;99.90;;;14.43;56.88;100063.72;5133098;28;20208;-66
2023/01/01 04:49:12;;;;;;;3.20;2.80;;;14.60;99.90;;;14.44;56.67;100068.91;5132886;28;20192;-67
2023/01/01 04:51:41;;;;;;;3.47;2.83;;;14.60;99.90;;;14.42;56.79;100060.28;5130914;28;20207;-66
2023/01/01 04:54:11;;;;;;;5.17;2.67;;;14.60;99.90;;;14.42;56.62;100060.28;5132072;28;20188;-67
2023/01/01 04:56:39;;;;;;;3.53;2.50;;;14.60;99.90;;;14.44;56.37;100058.53;5136400;28;20682;-66
2023/01/01 04:59:07;;;;;;;5.23;2.60;;;14.60;99.90;;;14.46;56.67;100072.28;5136073;28;20204;-68
2023/01/01 05:01:36;;;;;;;4.63;2.90;;;14.70;99.90;;;14.47;56.26;100073.13;5133299;28;20216;-67
2023/01/01 05:04:05;;;;;;;5.57;3.20;;;14.70;99.90;;;14.44;56.26;100079.25;5132267;28;20204;-67
2023/01/01 05:06:33;;;;;;;5.23;2.93;;;14.60;99.90;;;14.45;56.66;100080.97;5133883;28;20208;-67
2023/01/01 05:09:02;;;;;;;5.60;3.13;;;14.60;99.90;;;14.47;56.35;100078.31;5137181;28;20204;-67
2023/01/01 05:11:32;;;;;;;5.57;2.67;;;14.70;99.90;;;14.47;56.50;100093.88;5133636;28;20245;-67
2023/01/01 05:14:02;;;;;;;4.07;2.27;;;14.70;99.90;;;14.49;56.30;100079.13;5122275;28;20195;-67
2023/01/01 05:16:33;;;;;;;3.97;2.80;;;14.70;99.90;;;14.47;56.33;100068.81;5136097;28;20188;-67
2023/01/01 05:19:02;;;;;;;4.67;2.90;;;14.70;99.90;;;14.49;56.09;100081.72;5137408;28;20222;-67
2023/01/01 05:21:33;;;;;;;5.07;2.87;;;14.70;99.90;;;14.50;55.84;100060.97;5138146;28;21145;-67
2023/01/01 05:24:04;;;;;;;3.63;2.73;;;14.70;99.90;;;14.52;55.88;100070.47;5138544;28;20312;-66
2023/01/01 05:26:36;;;;;;;4.30;2.53;;;14.70;99.90;;;14.54;56.11;100073.84;5137879;28;20226;-67
2023/01/01 05:29:05;;;;;;;3.00;2.37;;;14.70;99.90;;;14.56;55.51;100072.06;5137125;27;20222;-66
2023/01/01 05:31:43;;;;;;;5.23;2.80;;;14.70;99.90;;;14.56;55.41;100066.88;5137509;28;20236;-66
2023/01/01 05:34:12;;;;;;;4.60;2.60;;;14.80;99.90;;;14.58;55.63;100071.16;5136707;28;20249;-65
2023/01/01 05:36:40;;;;;;;4.77;2.47;;;14.80;99.90;;;14.59;55.57;100072.00;5131516;28;20183;-66
2023/01/01 05:39:12;;;;;;;3.67;2.50;;;14.80;99.90;;;14.60;55.35;100095.28;5135168;28;20208;-67
2023/01/01 05:41:42;;;;;;;2.87;2.30;;;14.80;99.90;;;14.59;55.13;100092.75;5120956;28;20314;-66
2023/01/01 05:44:11;;;;;;;3.53;2.67;;;14.80;99.90;;;14.60;55.45;100091.84;5136410;28;20730;-67
2023/01/01 05:46:40;;;;;;;5.07;3.07;;;14.80;99.90;;;14.59;54.80;100088.41;5134412;28;20184;-66
2023/01/01 05:49:11;;;;;;;3.10;2.30;;;14.80;99.90;;;14.59;55.05;100103.13;5131541;28;20211;-65
2023/01/01 05:51:40;;;;;;;3.10;2.60;;;14.80;99.90;;;14.57;54.80;100090.16;5123459;28;20707;-66
2023/01/01 05:54:07;;;;;;;4.67;2.90;;;14.70;99.90;;;14.57;54.91;100113.50;5129730;28;20207;-67
2023/01/01 05:56:35;;;;;;;3.27;2.13;;;14.80;99.90;;;14.58;55.02;100110.03;5126522;28;20273;-65
2023/01/01 05:59:05;;;;;;;3.17;2.30;;;14.80;99.90;;;14.58;54.74;100106.56;5131518;28;20237;-66
2023/01/01 06:01:34;;;;;;;4.57;2.70;;;14.80;99.90;;;14.57;54.97;100113.50;5129750;28;20284;-66
2023/01/01 06:04:12;;;;;;;3.23;2.40;;;14.70;99.90;;;14.56;55.22;100118.75;5129805;28;20464;-66
2023/01/01 06:06:41;;;;;;;2.80;2.50;;;14.80;99.90;;;14.55;55.01;100117.06;5129505;28;20204;-65
2023/01/01 06:09:11;;;;;;;4.03;2.70;;;14.70;99.90;;;14.54;55.27;100131.72;5129245;28;20208;-67
2023/01/01 06:11:39;;;;;;;3.43;2.60;;;14.80;99.90;;;14.55;55.16;100132.63;5118429;28;20223;-67
2023/01/01 06:14:09;;;;;;;2.30;2.10;;;14.70;99.90;;;14.52;54.81;100132.69;5119377;28;20208;-66
2023/01/01 06:16:38;;;;;;;3.93;2.43;;;14.70;99.90;;;14.47;54.65;100125.84;5132217;28;20280;-67
2023/01/01 06:19:06;;;;;;;2.70;2.40;;;14.70;99.90;;;14.48;55.15;100137.91;5132984;28;20327;-66
2023/01/01 06:21:35;;;;;;;3.83;2.40;;;14.70;99.90;;;14.46;55.10;100128.47;5131859;28;20191;-67
2023/01/01 06:24:04;;;;;;;5.50;2.57;;;14.60;99.90;;;14.46;55.32;100134.50;5131619;28;20203;-66
2023/01/01 06:26:33;;;;;;;3.97;3.17;;;14.60;99.90;;;14.42;55.05;100132.88;5129829;28;20296;-65
2023/01/01 06:29:02;;;;;;;4.10;2.37;;;14.60;99.90;;;14.43;54.78;100136.31;5119378;28;20212;-66
2023/01/01 06:31:33;;;;;;;3.70;2.67;;;14.60;99.90;;;14.41;55.11;100149.34;5117903;28;20204;-66
2023/01/01 06:34:08;;;;;;;3.43;2.47;;;14.60;99.90;;;14.41;54.93;100153.69;5120576;28;20245;-66
2023/01/01 06:36:36;;;;;;;2.73;2.10;;;14.60;99.90;;;14.38;54.88;100146.81;5121402;28;20415;-66
2023/01/01 06:39:05;;;;;;;4.37;2.33;;;14.60;99.90;;;14.36;55.38;100151.22;5122799;28;20610;-66
2023/01/01 06:41:34;;;;;;;3.87;2.10;;;14.50;99.90;;;14.35;55.46;100140.84;5123749;28;20284;-67
2023/01/01 06:44:03;;;;;;;3.67;2.67;;;14.60;99.90;;;14.36;55.14;100147.72;5131191;28;20191;-68
2023/01/01 06:46:35;;;;;;;3.80;2.63;;;14.60;99.90;;;14.32;55.26;100157.31;5129719;28;20230;-66
2023/01/01 06:49:06;;;;;;;4.20;2.60;;;14.50;99.90;;;14.32;55.16;100161.66;5125587;28;20231;-66
2023/01/01 06:51:38;;;;;;;5.80;2.63;;;14.50;99.90;;;14.29;55.33;100147.06;5125786;28;20544;-68
2023/01/01 06:54:07;;;;;;;3.07;2.40;;;14.50;99.90;;;14.26;55.50;100141.94;5120887;28;21009;-67
2023/01/01 06:56:37;;;;;;;3.00;2.40;;;14.40;99.90;;;14.25;55.17;100150.63;5120896;28;20564;-66
2023/01/01 06:59:06;;;;;;;3.67;2.30;;;14.40;99.90;;;14.23;55.50;100160.16;5118554;28;20204;-66
2023/01/01 07:01:38;;;;;;;4.80;2.40;;;14.40;99.90;;;14.23;55.15;100155.84;5117706;28;20246;-68
2023/01/01 07:04:14;;;;;;;3.73;2.20;;;14.40;99.90;;;14.22;54.94;100166.25;5120122;28;20212;-67
2023/01/01 07:06:43;;;;;;;4.53;2.37;;;14.40;99.90;;;14.23;55.25;100167.94;5119256;28;20203;-67
2023/01/01 07:09:11;;;;;;;3.60;2.53;;;14.40;99.90;;;14.22;55.13;100177.47;5126032;28;20203;-69
2023/01/01 07:11:40;;;;;;;3.80;2.30;;;14.40;99.90;;;14.23;55.63;100178.31;5127614;28;20208;-68
2023/01/01 07:14:08;;;;;;;3.07;2.30;;;14.40;99.90;;;14.23;55.08;100173.97;5117689;28;20224;-68
2023/01/01 07:16:38;;;;;;;4.70;2.53;;;14.40;99.90;;;14.24;55.18;100169.63;5114576;28;20581;-69
2023/01/01 07:19:07;;;;;;;4.70;2.60;;;14.40;99.90;;;14.23;54.99;100171.38;5113512;28;20210;-67
2023/01/01 07:21:42;;;;;;;3.93;2.97;;;14.40;99.90;;;14.27;55.14;100172.16;5107360;28;20199;-65
2023/01/01 07:24:13;;;;;;;7.70;3.13;;;14.40;99.90;;;14.26;54.99;100189.44;5114063;28;20245;-69
2023/01/01 07:26:42;;;;;;;3.50;2.30;;;14.40;99.90;;;14.29;54.66;100187.69;5104521;28;20196;-65
2023/01/01 07:29:11;;;;;;;3.77;2.57;;;14.40;99.90;;;14.29;54.85;100204.09;5117957;28;20347;-67
2023/01/01 07:31:43;;;;;;;5.10;2.70;;;14.40;99.90;;;14.32;55.07;100197.94;5121499;28;20265;-68
2023/01/01 07:34:17;;;;;;;3.63;2.47;;;14.50;99.90;;;14.33;54.99;100195.34;5118231;28;20239;-68
2023/01/01 07:36:46;;;;;;;4.93;2.53;;;14.50;99.90;;;14.36;54.79;100199.56;5111430;28;20591;-67
2023/01/01 07:39:14;;;;;;;3.83;2.03;;;14.60;99.90;;;14.37;54.68;100202.16;5113332;28;20255;-69
2023/01/01 07:41:44;;;;;;;5.23;2.60;;;14.50;99.90;;;14.41;54.08;100208.97;5108986;28;20208;-67
2023/01/01 07:44:12;;;;;;;5.50;3.20;;;14.60;99.90;;;14.45;54.32;100210.59;5115709;28;20492;-68
2023/01/01 07:46:42;;;;;;;5.17;2.87;;;14.60;99.90;;;14.49;54.04;100207.06;5112566;28;20200;-68
2023/01/01 07:49:11;;;;;;;4.70;2.23;;;14.70;99.90;;;14.60;53.68;100208.53;5109800;28;20656;-67
2023/01/01 07:51:39;;;;;;;6.80;2.87;;;14.70;99.90;;;14.69;53.77;100209.16;5114398;28;20200;-68
2023/01/01 07:54:07;;;;;;;5.43;2.60;;;14.90;99.90;;;14.81;53.15;100213.16;5111041;28;20223;-68
2023/01/01 07:56:36;;;;;;;3.47;2.77;;;14.90;99.90;;;14.92;52.73;100229.31;5110772;28;20208;-69
2023/01/01 07:59:05;;;;;;;6.47;2.70;;;15.00;99.90;;;15.02;52.42;100216.06;5107804;28;20197;-67
2023/01/01 08:01:36;;;;;;;4.23;2.30;;;15.10;99.90;;;15.10;52.07;100229.72;5106606;28;20227;-68
2023/01/01 08:04:07;;;;;;;5.93;3.00;;;15.30;99.90;;;15.17;51.65;100231.22;5109564;28;20203;-68
2023/01/01 08:06:35;;;;;;;5.87;2.97;;;15.30;99.90;;;15.23;51.57;100237.09;5113421;28;20204;-70
2023/01/01 08:09:04;;;;;;;4.93;2.20;;;15.40;99.90;;;15.27;51.49;100222.28;5115156;28;20204;-69
2023/01/01 08:11:32;;;;;;;7.43;2.73;;;15.50;99.90;;;15.32;51.37;100230.81;5114354;28;20231;-68
2023/01/01 08:14:01;;;;;;;3.90;2.43;;;15.50;99.90;;;15.39;51.06;100236.66;5107547;28;20254;-70
2023/01/01 08:16:30;;;;;;;4.20;2.80;;;15.60;99.90;;;15.44;50.55;100243.44;5122702;28;20204;-71
2023/01/01 08:18:59;;;;;;;10.67;3.80;;;15.60;99.90;;;15.51;51.00;100243.28;5126006;28;20615;-70
2023/01/01 08:21:28;;;;;;;7.60;2.90;;;15.70;99.90;;;15.60;50.56;100248.19;5129563;28;20200;-69
2023/01/01 08:23:57;;;;;;;4.30;2.63;;;15.80;99.90;;;15.73;50.11;100256.53;5132920;28;20241;-70
2023/01/01 08:26:31;;;;;;;3.80;2.50;;;15.90;99.90;;;15.87;49.50;100264.75;5130622;28;20180;-71
2023/01/01 08:29:02;;;;;;;5.23;2.70;;;16.10;99.90;;;16.04;48.83;100256.44;5124941;28;20198;-70
2023/01/01 08:31:31;;;;;;;8.27;3.13;;;16.20;99.90;;;16.17;48.71;100256.03;5124757;28;20200;-69
2023/01/01 08:33:59;;;;;;;4.67;2.50;;;16.30;99.90;;;16.31;48.44;100255.59;5126879;28;20791;-69
2023/01/01 08:36:29;;;;;;;4.07;2.53;;;16.50;99.90;;;16.43;47.89;100260.41;5131161;28;20300;-69
2023/01/01 08:38:58;;;;;;;5.60;2.80;;;16.60;99.90;;;16.51;48.08;100257.56;5131346;28;20239;-69
2023/01/01 08:41:26;;;;;;;5.23;2.67;;;16.70;99.90;;;16.66;48.11;100266.59;5131160;28;20212;-67
2023/01/01 08:43:55;;;;;;;3.83;2.30;;;16.80;99.90;;;16.80;47.76;100264.44;5128238;28;20208;-68
2023/01/01 08:46:23;;;;;;;4.93;2.63;;;16.80;99.90;;;17.02;47.03;100274.97;5128658;28;20204;-70
2023/01/01 08:48:52;;;;;;;4.93;2.90;;;17.20;99.90;;;18.10;46.20;100261.47;5127030;28;20630;-68
2023/01/01 08:51:21;;;;;;;4.90;2.65;;;18.70;99.90;;;19.34;42.83;100264.16;5123542;28;20210;-69
2023/01/01 08:53:51;;;;;;;7.40;2.90;;;19.90;99.90;;;20.90;39.69;100267.25;5125936;28;20223;-68
2023/01/01 08:56:20;;;;;;;5.97;2.90;;;21.40;99.90;;;22.53;36.10;100269.00;5124362;28;20222;-69
2023/01/01 08:58:48;;;;;;;5.22;2.42;;;22.80;96.60;;;23.54;33.89;100271.75;5124174;28;20733;-69
2023/01/01 09:01:20;;;;;;;7.10;2.40;;;23.70;92.10;;;24.49;31.95;100273.63;5118395;28;20284;-73
2023/01/01 09:03:49;;;;;;;5.35;2.58;;;24.70;85.10;;;25.37;30.67;100273.00;5120103;28;20219;-72
2023/01/01 09:06:17;;;;;;;5.43;2.20;;;25.70;78.10;;;26.10;29.31;100264.31;5127180;28;20245;-70
2023/01/01 09:08:46;;;;;;;5.28;2.78;;;26.50;73.70;;;26.88;27.98;100272.59;5132080;28;20222;-70
2023/01/01 09:11:24;;;;;;;5.68;2.40;;;27.40;69.40;;;27.97;27.02;100271.22;5128163;28;20180;-69
2023/01/01 09:13:54;;;;;;;6.28;2.45;;;28.60;65.30;;;29.19;25.24;100269.00;5125552;28;20681;-70
2023/01/01 09:16:23;;;;;;;5.45;2.55;;;29.50;59.70;;;30.01;23.65;100268.91;5123582;28;20213;-68
2023/01/01 09:18:51;;;;;;;5.50;2.30;;;30.10;56.50;;;30.47;23.05;100253.28;5209171;22;20249;-70
2023/01/01 09:21:20;;;;;;;5.85;2.60;;;30.70;54.90;;;30.99;22.42;100253.78;5148338;28;20183;-70
2023/01/01 09:23:49;;;;;;;6.78;2.55;;;31.30;53.30;;;31.50;21.37;100268.50;5129487;27;20491;-70
2023/01/01 09:26:17;;;;;;;5.00;2.42;;;31.80;51.50;;;31.57;21.52;100261.59;5147919;27;20295;-69
2023/01/01 09:28:47;;;;;;;5.80;2.25;;;31.80;50.40;;;31.06;21.52;100265.53;5137644;27;20210;-66
2023/01/01 09:31:16;;;;;;;4.65;2.47;;;31.40;49.50;;;30.35;21.65;100249.09;5132054;27;20199;-68
2023/01/01 09:33:44;;;;;;;5.25;2.53;;;30.50;49.80;;;29.22;22.54;100275.88;5134572;27;20231;-67
2023/01/01 09:36:15;;;;;;;7.88;3.10;;;29.40;50.30;;;27.63;24.43;100258.84;5128582;27;20207;-68
2023/01/01 09:38:48;;;;;;;6.75;2.83;;;27.80;51.70;;;25.90;26.42;100265.78;5131058;27;20195;-67
2023/01/01 09:41:25;;;;;;;5.68;2.72;;;26.10;54.20;;;24.54;28.48;100276.81;5140007;27;20192;-66
2023/01/01 09:44:06;;;;;;;5.25;2.47;;;24.50;56.40;;;23.43;30.38;100270.72;5139176;27;20244;-68
2023/01/01 09:46:35;;;;;;;5.18;2.53;;;23.40;58.80;;;22.67;32.00;100277.78;5148644;27;20224;-67
2023/01/01 09:49:10;;;;;;;5.35;2.70;;;22.60;61.00;;;22.35;32.69;100276.16;5134460;27;20247;-67
2023/01/01 09:51:42;;;;;;;5.43;2.42;;;22.30;62.10;;;21.86;33.25;100271.84;5131622;27;20202;-68
2023/01/01 09:54:28;;;;;;;5.80;2.55;;;21.80;63.00;;;21.32;34.45;100278.22;5133873;27;20227;-70
2023/01/01 09:56:59;;;;;;;5.28;2.15;;;21.20;64.30;;;20.92;35.15;100288.16;5140144;27;20224;-68
2023/01/01 09:59:30;;;;;;;7.63;2.33;;;20.90;65.90;;;20.63;35.78;100295.69;5123595;27;20210;-67
2023/01/01 10:02:12;;;;;;;5.20;2.47;;;20.60;66.70;;;20.42;36.24;100280.97;5120949;28;20253;-72
2023/01/01 10:04:59;;;;;;;4.95;2.40;;;20.40;67.60;;;20.57;35.92;100280.25;5120222;28;20206;-70
2023/01/01 10:07:37;;;;;;;4.10;2.20;;;20.60;68.40;;;20.65;35.93;100283.34;5114053;27;20253;-64
2023/01/01 10:10:22;;;;;;;6.18;2.50;;;20.60;68.10;;;20.58;35.96;100268.84;5108690;28;20295;-68
2023/01/01 10:12:58;;;;;;;5.22;2.25;;;20.60;68.40;;;20.54;35.93;100267.31;5115556;27;20920;-67
2023/01/01 10:15:34;;;;;;;6.97;2.40;;;20.50;68.30;;;20.67;36.06;100270.19;5112970;28;20268;-65
2023/01/01 10:18:12;;;;;;;7.53;3.03;;;20.70;69.30;;;21.04;35.18;100268.34;5114617;28;20711;-68
2023/01/01 10:20:46;;;;;;;6.40;2.13;;;21.10;67.70;;;21.66;34.39;100256.34;5108443;28;20240;-65
2023/01/01 10:23:23;;;;;;;9.40;2.50;;;21.70;67.30;;;22.20;33.34;100256.88;5113743;28;20245;-68
2023/01/01 10:25:53;;;;;;;5.43;2.45;;;22.40;65.40;;;22.25;32.41;100257.47;5113852;28;20200;-65
2023/01/01 10:28:28;;;;;;;7.25;2.78;;;22.30;64.00;;;22.05;33.03;100257.69;5117085;28;20249;-67
2023/01/01 10:31:15;;;;;;;7.60;2.53;;;22.10;64.20;;;22.09;33.18;100248.72;5111726;28;20237;-67
2023/01/01 10:33:45;;;;;;;5.20;2.22;;;22.20;65.20;;;22.46;32.53;100257.16;5105350;28;20596;-68
2023/01/01 10:36:18;;;;;;;7.90;2.50;;;22.60;64.20;;;23.11;31.53;100245.44;5115435;28;20248;-66